sensor_id;sensor_type;location;lat;lon;timestamp;temperature;humidity
2389;DHT22;1205;47.984;7.668;2022-12-18T00:01:00;-3.70;99.90
2389;DHT22;1205;47.984;7.668;2022-12-18T00:03:26;-3.80;99.90
2389;DHT22;1205;47.984;7.668;2022-12-18T00:05:52;-3.80;99.90
2389;DHT22;1205;47.984;7.668;2022-12-18T00:08:18;-3.80;99.90
2389;DHT22;1205;47.984;7.668;2022-12-18T00:10:44;-4.00;99.90
2389;DHT22;1205;47.984;7.668;2022-12-18T00:13:11;-4.00;99.90
2389;DHT22;1205;47.984;7.668;2022-12-18T00:15:38;-4.00;99.90
2389;DHT22;1205;47.984;7.668;2022-12-18T00:18:05;-3.90;99.90
2389;DHT22;1205;47.984;7.668;2022-12-18T00:20:31;-4.00;99.90
2389;DHT22;1205;47.984;7.668;2022-12-18T00:22:57;-4.10;99.90
2389;DHT22;1205;47.984;7.668;2022-12-18T00:25:22;-4.20;99.90
2389;DHT22;1205;47.984;7.668;2022-12-18T00:27:48;-4.10;99.90
2389;DHT22;1205;47.984;7.668;2022-12-18T00:30:14;-4.10;99.90
2389;DHT22;1205;47.984;7.668;2022-12-18T00:32:39;-4.00;99.90
2389;DHT22;1205;47.984;7.668;2022-12-18T00:35:06;-4.10;99.90
2389;DHT22;1205;47.984;7.668;2022-12-18T00:37:33;-4.10;99.90
2389;DHT22;1205;47.984;7.668;2022-12-18T00:39:59;-4.00;99.90
2389;DHT22;1205;47.984;7.668;2022-12-18T00:42:25;-4.10;99.90
2389;DHT22;1205;47.984;7.668;2022-12-18T00:45:10;-4.20;99.90
2389;DHT22;1205;47.984;7.668;2022-12-18T00:47:35;-4.20;99.90
2389;DHT22;1205;47.984;7.668;2022-12-18T00:50:01;-4.00;99.90
2389;DHT22;1205;47.984;7.668;2022-12-18T00:52:26;-4.10;99.90
2389;DHT22;1205;47.984;7.668;2022-12-18T00:54:52;-4.00;99.90
2389;DHT22;1205;47.984;7.668;2022-12-18T00:57:18;-4.00;99.90
2389;DHT22;1205;47.984;7.668;2022-12-18T00:59:43;-4.00;99.90
2389;DHT22;1205;47.984;7.668;2022-12-18T01:02:09;-4.10;99.90
2389;DHT22;1205;47.984;7.668;2022-12-18T01:04:34;-3.90;99.90
2389;DHT22;1205;47.984;7.668;2022-12-18T01:07:00;-4.20;99.90
2389;DHT22;1205;47.984;7.668;2022-12-18T01:09:26;-4.10;99.90
2389;DHT22;1205;47.984;7.668;2022-12-18T01:11:51;-4.00;99.90
2389;DHT22;1205;47.984;7.668;2022-12-18T01:14:17;-4.30;99.90
2389;DHT22;1205;47.984;7.668;2022-12-18T01:16:43;-4.20;99.90
2389;DHT22;1205;47.984;7.668;2022-12-18T01:19:08;-4.30;99.90
2389;DHT22;1205;47.984;7.668;2022-12-18T01:21:34;-4.30;99.90
2389;DHT22;1205;47.984;7.668;2022-12-18T01:24:00;-4.40;99.90
2389;DHT22;1205;47.984;7.668;2022-12-18T01:26:26;-4.40;99.90
2389;DHT22;1205;47.984;7.668;2022-12-18T01:28:55;-4.60;99.90
2389;DHT22;1205;47.984;7.668;2022-12-18T01:31:26;-4.50;99.90
2389;DHT22;1205;47.984;7.668;2022-12-18T01:33:52;-4.50;99.90
2389;DHT22;1205;47.984;7.668;2022-12-18T01:36:38;-4.40;99.90
2389;DHT22;1205;47.984;7.668;2022-12-18T01:39:10;-4.30;99.90
2389;DHT22;1205;47.984;7.668;2022-12-18T01:41:37;-4.20;99.90
2389;DHT22;1205;47.984;7.668;2022-12-18T01:47:22;-4.30;99.90
2389;DHT22;1205;47.984;7.668;2022-12-18T01:49:48;-4.10;99.90
2389;DHT22;1205;47.984;7.668;2022-12-18T01:52:15;-4.30;99.90
2389;DHT22;1205;47.984;7.668;2022-12-18T01:54:41;-4.20;99.90
2389;DHT22;1205;47.984;7.668;2022-12-18T01:57:07;-4.30;99.90
2389;DHT22;1205;47.984;7.668;2022-12-18T01:59:33;-4.30;99.90
2389;DHT22;1205;47.984;7.668;2022-12-18T02:02:00;-4.10;99.90
2389;DHT22;1205;47.984;7.668;2022-12-18T02:04:27;-4.10;99.90
2389;DHT22;1205;47.984;7.668;2022-12-18T02:07:26;-4.20;99.90
2389;DHT22;1205;47.984;7.668;2022-12-18T02:10:07;-4.30;99.90
2389;DHT22;1205;47.984;7.668;2022-12-18T02:12:45;-4.40;99.90
2389;DHT22;1205;47.984;7.668;2022-12-18T02:15:22;-4.40;99.90
2389;DHT22;1205;47.984;7.668;2022-12-18T02:17:58;-4.30;99.90
2389;DHT22;1205;47.984;7.668;2022-12-18T02:20:35;-4.30;99.90
2389;DHT22;1205;47.984;7.668;2022-12-18T02:25:38;-4.20;99.90
2389;DHT22;1205;47.984;7.668;2022-12-18T02:28:09;-4.20;99.90
2389;DHT22;1205;47.984;7.668;2022-12-18T02:30:36;-4.20;99.90
2389;DHT22;1205;47.984;7.668;2022-12-18T02:33:05;-4.30;99.90
2389;DHT22;1205;47.984;7.668;2022-12-18T02:35:33;-4.40;99.90
2389;DHT22;1205;47.984;7.668;2022-12-18T02:38:00;-4.30;99.90
2389;DHT22;1205;47.984;7.668;2022-12-18T02:40:27;-4.30;99.90
2389;DHT22;1205;47.984;7.668;2022-12-18T02:42:53;-4.50;99.90
2389;DHT22;1205;47.984;7.668;2022-12-18T02:45:19;-4.40;99.90
2389;DHT22;1205;47.984;7.668;2022-12-18T02:47:48;-4.40;99.90
2389;DHT22;1205;47.984;7.668;2022-12-18T02:50:29;-4.40;99.90
2389;DHT22;1205;47.984;7.668;2022-12-18T02:53:10;-4.30;99.90
2389;DHT22;1205;47.984;7.668;2022-12-18T03:01:03;-4.50;99.90
2389;DHT22;1205;47.984;7.668;2022-12-18T03:03:51;-4.60;99.90
2389;DHT22;1205;47.984;7.668;2022-12-18T03:06:28;-4.70;99.90
2389;DHT22;1205;47.984;7.668;2022-12-18T03:08:59;-4.60;99.90
2389;DHT22;1205;47.984;7.668;2022-12-18T03:11:30;-4.50;99.90
2389;DHT22;1205;47.984;7.668;2022-12-18T03:14:17;-4.40;99.90
2389;DHT22;1205;47.984;7.668;2022-12-18T03:16:44;-4.40;99.90
2389;DHT22;1205;47.984;7.668;2022-12-18T03:19:15;-4.30;99.90
2389;DHT22;1205;47.984;7.668;2022-12-18T03:21:51;-4.30;99.90
2389;DHT22;1205;47.984;7.668;2022-12-18T03:24:18;-4.40;99.90
2389;DHT22;1205;47.984;7.668;2022-12-18T03:26:47;-4.40;99.90
2389;DHT22;1205;47.984;7.668;2022-12-18T03:29:35;-4.60;99.90
2389;DHT22;1205;47.984;7.668;2022-12-18T03:32:07;-4.60;99.90
2389;DHT22;1205;47.984;7.668;2022-12-18T03:34:37;-4.50;99.90
2389;DHT22;1205;47.984;7.668;2022-12-18T03:37:04;-4.50;99.90
2389;DHT22;1205;47.984;7.668;2022-12-18T03:39:30;-4.60;99.90
2389;DHT22;1205;47.984;7.668;2022-12-18T03:42:06;-4.60;99.90
2389;DHT22;1205;47.984;7.668;2022-12-18T03:44:59;-4.60;99.90
2389;DHT22;1205;47.984;7.668;2022-12-18T03:47:34;-4.50;99.90
2389;DHT22;1205;47.984;7.668;2022-12-18T03:50:11;-4.70;99.90
2389;DHT22;1205;47.984;7.668;2022-12-18T03:52:50;-4.70;99.90
2389;DHT22;1205;47.984;7.668;2022-12-18T03:55:18;-4.60;99.90
2389;DHT22;1205;47.984;7.668;2022-12-18T03:57:46;-4.50;99.90
2389;DHT22;1205;47.984;7.668;2022-12-18T04:00:14;-4.50;99.90
2389;DHT22;1205;47.984;7.668;2022-12-18T04:02:48;-4.50;99.90
2389;DHT22;1205;47.984;7.668;2022-12-18T04:05:15;-4.60;99.90
2389;DHT22;1205;47.984;7.668;2022-12-18T04:07:44;-4.60;99.90
2389;DHT22;1205;47.984;7.668;2022-12-18T04:10:12;-4.50;99.90
2389;DHT22;1205;47.984;7.668;2022-12-18T04:12:38;-4.60;99.90
2389;DHT22;1205;47.984;7.668;2022-12-18T04:15:05;-4.50;99.90
2389;DHT22;1205;47.984;7.668;2022-12-18T04:17:30;-4.50;99.90
2389;DHT22;1205;47.984;7.668;2022-12-18T04:19:56;-4.40;99.90
2389;DHT22;1205;47.984;7.668;2022-12-18T04:22:22;-4.40;99.90
2389;DHT22;1205;47.984;7.668;2022-12-18T04:24:47;-4.30;99.90
2389;DHT22;1205;47.984;7.668;2022-12-18T04:27:13;-4.50;99.90
2389;DHT22;1205;47.984;7.668;2022-12-18T04:29:39;-4.60;99.90
2389;DHT22;1205;47.984;7.668;2022-12-18T04:32:05;-4.50;99.90
2389;DHT22;1205;47.984;7.668;2022-12-18T04:34:30;-4.50;99.90
2389;DHT22;1205;47.984;7.668;2022-12-18T04:36:56;-4.50;99.90
2389;DHT22;1205;47.984;7.668;2022-12-18T04:39:21;-4.60;99.90
2389;DHT22;1205;47.984;7.668;2022-12-18T04:41:47;-4.60;99.90
2389;DHT22;1205;47.984;7.668;2022-12-18T04:44:13;-4.50;99.90
2389;DHT22;1205;47.984;7.668;2022-12-18T04:46:38;-4.50;99.90
2389;DHT22;1205;47.984;7.668;2022-12-18T04:49:04;-4.40;99.90
2389;DHT22;1205;47.984;7.668;2022-12-18T04:51:30;-4.40;99.90
2389;DHT22;1205;47.984;7.668;2022-12-18T04:53:55;-4.40;99.90
2389;DHT22;1205;47.984;7.668;2022-12-18T04:56:21;-4.40;99.90
2389;DHT22;1205;47.984;7.668;2022-12-18T04:58:47;-4.50;99.90
2389;DHT22;1205;47.984;7.668;2022-12-18T05:01:14;-4.50;99.90
2389;DHT22;1205;47.984;7.668;2022-12-18T05:03:40;-4.40;99.90
2389;DHT22;1205;47.984;7.668;2022-12-18T05:06:06;-4.30;99.90
2389;DHT22;1205;47.984;7.668;2022-12-18T05:08:32;-4.30;99.90
2389;DHT22;1205;47.984;7.668;2022-12-18T05:11:06;-4.40;99.90
2389;DHT22;1205;47.984;7.668;2022-12-18T05:13:32;-4.40;99.90
2389;DHT22;1205;47.984;7.668;2022-12-18T05:15:58;-4.40;99.90
2389;DHT22;1205;47.984;7.668;2022-12-18T05:18:25;-4.40;99.90
2389;DHT22;1205;47.984;7.668;2022-12-18T05:20:51;-4.40;99.90
2389;DHT22;1205;47.984;7.668;2022-12-18T05:23:17;-4.40;99.90
2389;DHT22;1205;47.984;7.668;2022-12-18T05:25:52;-4.60;99.90
2389;DHT22;1205;47.984;7.668;2022-12-18T05:28:18;-4.50;99.90
2389;DHT22;1205;47.984;7.668;2022-12-18T05:30:51;-4.50;99.90
2389;DHT22;1205;47.984;7.668;2022-12-18T05:33:18;-4.70;99.90
2389;DHT22;1205;47.984;7.668;2022-12-18T05:35:44;-4.70;99.90
2389;DHT22;1205;47.984;7.668;2022-12-18T05:38:10;-4.70;99.90
2389;DHT22;1205;47.984;7.668;2022-12-18T05:40:35;-4.70;99.90
2389;DHT22;1205;47.984;7.668;2022-12-18T05:43:04;-4.60;99.90
2389;DHT22;1205;47.984;7.668;2022-12-18T05:45:30;-4.60;99.90
2389;DHT22;1205;47.984;7.668;2022-12-18T05:47:55;-4.60;99.90
2389;DHT22;1205;47.984;7.668;2022-12-18T05:50:21;-4.60;99.90
2389;DHT22;1205;47.984;7.668;2022-12-18T05:52:47;-4.50;99.90
2389;DHT22;1205;47.984;7.668;2022-12-18T05:55:12;-4.50;99.90
2389;DHT22;1205;47.984;7.668;2022-12-18T05:57:38;-4.50;99.90
2389;DHT22;1205;47.984;7.668;2022-12-18T06:00:04;-4.60;99.90
2389;DHT22;1205;47.984;7.668;2022-12-18T06:02:29;-4.60;99.90
2389;DHT22;1205;47.984;7.668;2022-12-18T06:04:55;-4.50;99.90
2389;DHT22;1205;47.984;7.668;2022-12-18T06:07:21;-4.50;99.90
2389;DHT22;1205;47.984;7.668;2022-12-18T06:09:46;-4.60;99.90
2389;DHT22;1205;47.984;7.668;2022-12-18T06:12:12;-4.50;99.90
2389;DHT22;1205;47.984;7.668;2022-12-18T06:14:37;-4.50;99.90
2389;DHT22;1205;47.984;7.668;2022-12-18T06:17:03;-4.60;99.90
2389;DHT22;1205;47.984;7.668;2022-12-18T06:19:28;-4.60;99.90
2389;DHT22;1205;47.984;7.668;2022-12-18T06:21:54;-4.70;99.90
2389;DHT22;1205;47.984;7.668;2022-12-18T06:24:19;-4.90;99.90
2389;DHT22;1205;47.984;7.668;2022-12-18T06:26:45;-4.90;99.90
2389;DHT22;1205;47.984;7.668;2022-12-18T06:29:11;-4.90;99.90
2389;DHT22;1205;47.984;7.668;2022-12-18T06:31:36;-5.00;99.90
2389;DHT22;1205;47.984;7.668;2022-12-18T06:34:03;-4.90;99.90
2389;DHT22;1205;47.984;7.668;2022-12-18T06:36:29;-4.80;99.90
2389;DHT22;1205;47.984;7.668;2022-12-18T06:38:56;-4.80;99.90
2389;DHT22;1205;47.984;7.668;2022-12-18T06:41:22;-4.70;99.90
2389;DHT22;1205;47.984;7.668;2022-12-18T06:43:48;-4.80;99.90
2389;DHT22;1205;47.984;7.668;2022-12-18T06:46:13;-4.60;99.90
2389;DHT22;1205;47.984;7.668;2022-12-18T06:48:39;-4.80;99.90
2389;DHT22;1205;47.984;7.668;2022-12-18T06:51:05;-4.90;99.90
2389;DHT22;1205;47.984;7.668;2022-12-18T06:53:32;-4.70;99.90
2389;DHT22;1205;47.984;7.668;2022-12-18T06:56:06;-4.70;99.90
2389;DHT22;1205;47.984;7.668;2022-12-18T06:58:32;-4.60;99.90
2389;DHT22;1205;47.984;7.668;2022-12-18T07:01:02;-4.60;99.90
2389;DHT22;1205;47.984;7.668;2022-12-18T07:03:28;-4.50;99.90
2389;DHT22;1205;47.984;7.668;2022-12-18T07:05:54;-4.40;99.90
2389;DHT22;1205;47.984;7.668;2022-12-18T07:08:19;-4.50;99.90
2389;DHT22;1205;47.984;7.668;2022-12-18T07:10:45;-4.60;99.90
2389;DHT22;1205;47.984;7.668;2022-12-18T07:13:11;-4.70;99.90
2389;DHT22;1205;47.984;7.668;2022-12-18T07:15:36;-4.60;99.90
2389;DHT22;1205;47.984;7.668;2022-12-18T07:18:02;-4.50;99.90
2389;DHT22;1205;47.984;7.668;2022-12-18T07:20:27;-4.60;99.90
2389;DHT22;1205;47.984;7.668;2022-12-18T07:22:53;-4.60;99.90
2389;DHT22;1205;47.984;7.668;2022-12-18T07:25:18;-4.60;99.90
2389;DHT22;1205;47.984;7.668;2022-12-18T07:27:44;-4.60;99.90
2389;DHT22;1205;47.984;7.668;2022-12-18T07:30:10;-4.70;99.90
2389;DHT22;1205;47.984;7.668;2022-12-18T07:32:35;-4.90;99.90
2389;DHT22;1205;47.984;7.668;2022-12-18T07:35:01;-4.80;99.90
2389;DHT22;1205;47.984;7.668;2022-12-18T07:37:27;-4.70;99.90
2389;DHT22;1205;47.984;7.668;2022-12-18T07:39:52;-4.70;99.90
2389;DHT22;1205;47.984;7.668;2022-12-18T07:42:18;-4.60;99.90
2389;DHT22;1205;47.984;7.668;2022-12-18T07:44:56;-4.70;99.90
2389;DHT22;1205;47.984;7.668;2022-12-18T07:47:21;-4.60;99.90
2389;DHT22;1205;47.984;7.668;2022-12-18T07:49:47;-4.40;99.90
2389;DHT22;1205;47.984;7.668;2022-12-18T07:52:13;-4.30;99.90
2389;DHT22;1205;47.984;7.668;2022-12-18T07:54:38;-4.30;99.90
2389;DHT22;1205;47.984;7.668;2022-12-18T07:57:05;-4.30;99.90
2389;DHT22;1205;47.984;7.668;2022-12-18T07:59:31;-4.20;99.90
2389;DHT22;1205;47.984;7.668;2022-12-18T08:01:57;-4.30;99.90
2389;DHT22;1205;47.984;7.668;2022-12-18T08:04:22;-4.20;99.90
2389;DHT22;1205;47.984;7.668;2022-12-18T08:06:48;-4.20;99.90
2389;DHT22;1205;47.984;7.668;2022-12-18T08:09:14;-4.20;99.90
2389;DHT22;1205;47.984;7.668;2022-12-18T08:11:39;-4.20;99.90
2389;DHT22;1205;47.984;7.668;2022-12-18T08:14:05;-4.20;99.90
2389;DHT22;1205;47.984;7.668;2022-12-18T08:16:30;-4.10;99.90
2389;DHT22;1205;47.984;7.668;2022-12-18T08:18:56;-4.10;99.90
2389;DHT22;1205;47.984;7.668;2022-12-18T08:21:27;-4.00;99.90
2389;DHT22;1205;47.984;7.668;2022-12-18T08:23:54;-4.00;99.90
2389;DHT22;1205;47.984;7.668;2022-12-18T08:26:20;-3.90;99.90
2389;DHT22;1205;47.984;7.668;2022-12-18T08:28:46;-4.00;99.90
2389;DHT22;1205;47.984;7.668;2022-12-18T08:31:12;-3.80;99.90
2389;DHT22;1205;47.984;7.668;2022-12-18T08:33:38;-3.80;99.90
2389;DHT22;1205;47.984;7.668;2022-12-18T08:36:05;-3.90;99.90
2389;DHT22;1205;47.984;7.668;2022-12-18T08:38:32;-4.00;99.90
2389;DHT22;1205;47.984;7.668;2022-12-18T08:41:06;-3.90;99.90
2389;DHT22;1205;47.984;7.668;2022-12-18T08:43:31;-3.70;99.90
2389;DHT22;1205;47.984;7.668;2022-12-18T08:46:17;-3.80;99.90
2389;DHT22;1205;47.984;7.668;2022-12-18T08:48:43;-3.80;99.90
2389;DHT22;1205;47.984;7.668;2022-12-18T08:51:09;-3.90;99.90
2389;DHT22;1205;47.984;7.668;2022-12-18T08:53:35;-3.80;99.90
2389;DHT22;1205;47.984;7.668;2022-12-18T08:56:01;-3.90;99.90
2389;DHT22;1205;47.984;7.668;2022-12-18T08:58:27;-4.10;99.90
2389;DHT22;1205;47.984;7.668;2022-12-18T09:00:53;-4.10;99.90
2389;DHT22;1205;47.984;7.668;2022-12-18T09:03:19;-4.10;99.90
2389;DHT22;1205;47.984;7.668;2022-12-18T09:05:48;-4.00;99.90
2389;DHT22;1205;47.984;7.668;2022-12-18T09:08:13;-3.90;99.90
2389;DHT22;1205;47.984;7.668;2022-12-18T09:10:47;-3.90;99.90
2389;DHT22;1205;47.984;7.668;2022-12-18T09:13:13;-3.90;99.90
2389;DHT22;1205;47.984;7.668;2022-12-18T09:15:42;-3.70;99.90
2389;DHT22;1205;47.984;7.668;2022-12-18T09:18:08;-3.60;99.90
2389;DHT22;1205;47.984;7.668;2022-12-18T09:20:35;-3.80;99.90
2389;DHT22;1205;47.984;7.668;2022-12-18T09:23:01;-3.60;99.90
2389;DHT22;1205;47.984;7.668;2022-12-18T09:25:28;-3.60;99.90
2389;DHT22;1205;47.984;7.668;2022-12-18T09:27:57;-3.60;99.90
2389;DHT22;1205;47.984;7.668;2022-12-18T09:30:22;-3.70;99.90
2389;DHT22;1205;47.984;7.668;2022-12-18T09:32:48;-3.60;99.90
2389;DHT22;1205;47.984;7.668;2022-12-18T09:35:13;-3.50;99.90
2389;DHT22;1205;47.984;7.668;2022-12-18T09:37:39;-3.60;99.90
2389;DHT22;1205;47.984;7.668;2022-12-18T09:40:05;-4.00;99.90
2389;DHT22;1205;47.984;7.668;2022-12-18T09:42:31;-3.90;99.90
2389;DHT22;1205;47.984;7.668;2022-12-18T09:44:58;-3.80;99.90
2389;DHT22;1205;47.984;7.668;2022-12-18T09:47:28;-3.80;99.90
2389;DHT22;1205;47.984;7.668;2022-12-18T09:50:02;-3.60;99.90
2389;DHT22;1205;47.984;7.668;2022-12-18T09:52:34;-3.70;99.90
2389;DHT22;1205;47.984;7.668;2022-12-18T09:58:05;-3.80;99.90
2389;DHT22;1205;47.984;7.668;2022-12-18T10:00:32;-3.50;99.90
2389;DHT22;1205;47.984;7.668;2022-12-18T10:03:08;-3.40;99.90
2389;DHT22;1205;47.984;7.668;2022-12-18T10:16:35;-3.20;99.90
2389;DHT22;1205;47.984;7.668;2022-12-18T10:25:13;-2.90;99.90
2389;DHT22;1205;47.984;7.668;2022-12-18T10:27:29;-3.00;99.90
2389;DHT22;1205;47.984;7.668;2022-12-18T10:29:55;-3.00;99.90
2389;DHT22;1205;47.984;7.668;2022-12-18T10:32:24;-2.90;99.90
2389;DHT22;1205;47.984;7.668;2022-12-18T10:34:54;-2.70;99.90
2389;DHT22;1205;47.984;7.668;2022-12-18T10:37:23;-2.80;99.90
2389;DHT22;1205;47.984;7.668;2022-12-18T10:40:13;-2.60;99.90
2389;DHT22;1205;47.984;7.668;2022-12-18T10:42:39;-2.70;99.90
2389;DHT22;1205;47.984;7.668;2022-12-18T10:45:15;-2.70;99.90
2389;DHT22;1205;47.984;7.668;2022-12-18T10:47:46;-0.20;99.90
2389;DHT22;1205;47.984;7.668;2022-12-18T10:50:30;-0.60;99.90
2389;DHT22;1205;47.984;7.668;2022-12-18T10:52:59;-1.60;99.90
2389;DHT22;1205;47.984;7.668;2022-12-18T10:55:34;-1.70;99.90
2389;DHT22;1205;47.984;7.668;2022-12-18T10:58:21;-2.10;99.90
2389;DHT22;1205;47.984;7.668;2022-12-18T11:01:12;-2.30;99.90
2389;DHT22;1205;47.984;7.668;2022-12-18T11:03:43;-2.50;99.90
2389;DHT22;1205;47.984;7.668;2022-12-18T11:06:15;-2.70;99.90
2389;DHT22;1205;47.984;7.668;2022-12-18T11:08:42;-2.60;99.90
2389;DHT22;1205;47.984;7.668;2022-12-18T11:11:22;-2.70;99.90
2389;DHT22;1205;47.984;7.668;2022-12-18T11:16:25;-2.50;99.90
2389;DHT22;1205;47.984;7.668;2022-12-18T11:18:52;-2.40;99.90
2389;DHT22;1205;47.984;7.668;2022-12-18T11:21:17;-2.30;99.90
2389;DHT22;1205;47.984;7.668;2022-12-18T11:23:51;-2.30;99.90
2389;DHT22;1205;47.984;7.668;2022-12-18T11:26:18;-2.50;99.90
2389;DHT22;1205;47.984;7.668;2022-12-18T11:28:52;-2.50;99.90
2389;DHT22;1205;47.984;7.668;2022-12-18T11:31:32;-2.60;99.90
2389;DHT22;1205;47.984;7.668;2022-12-18T11:34:11;-2.70;99.90
2389;DHT22;1205;47.984;7.668;2022-12-18T11:36:46;-2.70;99.90
2389;DHT22;1205;47.984;7.668;2022-12-18T11:39:24;-2.80;99.90
2389;DHT22;1205;47.984;7.668;2022-12-18T11:42:20;-2.80;99.90
2389;DHT22;1205;47.984;7.668;2022-12-18T11:44:54;-2.60;99.90
2389;DHT22;1205;47.984;7.668;2022-12-18T11:50:21;-2.70;99.90
2389;DHT22;1205;47.984;7.668;2022-12-18T11:52:49;-2.40;99.90
2389;DHT22;1205;47.984;7.668;2022-12-18T12:04:08;-1.90;99.90
2389;DHT22;1205;47.984;7.668;2022-12-18T12:20:56;-1.50;99.90
2389;DHT22;1205;47.984;7.668;2022-12-18T12:26:08;-1.50;99.90
2389;DHT22;1205;47.984;7.668;2022-12-18T12:34:11;-1.70;99.90
2389;DHT22;1205;47.984;7.668;2022-12-18T12:39:11;-1.60;99.90
2389;DHT22;1205;47.984;7.668;2022-12-18T12:41:41;-1.50;99.90
2389;DHT22;1205;47.984;7.668;2022-12-18T12:44:26;-1.50;99.90
2389;DHT22;1205;47.984;7.668;2022-12-18T12:46:58;-1.50;99.90
2389;DHT22;1205;47.984;7.668;2022-12-18T12:49:27;-1.40;99.90
2389;DHT22;1205;47.984;7.668;2022-12-18T12:54:26;-1.40;99.90
2389;DHT22;1205;47.984;7.668;2022-12-18T12:57:07;-1.30;99.90
2389;DHT22;1205;47.984;7.668;2022-12-18T12:59:46;-1.40;99.90
2389;DHT22;1205;47.984;7.668;2022-12-18T13:02:35;-1.30;99.90
2389;DHT22;1205;47.984;7.668;2022-12-18T13:05:21;-1.30;99.90
2389;DHT22;1205;47.984;7.668;2022-12-18T13:08:02;-1.20;99.90
2389;DHT22;1205;47.984;7.668;2022-12-18T13:10:33;-1.00;99.90
2389;DHT22;1205;47.984;7.668;2022-12-18T13:13:11;-0.60;99.90
2389;DHT22;1205;47.984;7.668;2022-12-18T13:16:04;-0.70;99.90
2389;DHT22;1205;47.984;7.668;2022-12-18T13:18:30;-0.40;99.90
2389;DHT22;1205;47.984;7.668;2022-12-18T13:25:55;-0.80;99.90
2389;DHT22;1205;47.984;7.668;2022-12-18T13:30:58;-1.00;99.90
2389;DHT22;1205;47.984;7.668;2022-12-18T13:38:41;-0.80;99.90
2389;DHT22;1205;47.984;7.668;2022-12-18T13:43:43;-0.80;99.90
2389;DHT22;1205;47.984;7.668;2022-12-18T13:46:44;-0.80;99.90
2389;DHT22;1205;47.984;7.668;2022-12-18T13:51:42;-0.80;99.90
2389;DHT22;1205;47.984;7.668;2022-12-18T13:54:33;-0.70;99.90
2389;DHT22;1205;47.984;7.668;2022-12-18T13:56:59;-0.60;99.90
2389;DHT22;1205;47.984;7.668;2022-12-18T13:59:26;-0.70;99.90
2389;DHT22;1205;47.984;7.668;2022-12-18T14:02:00;-0.80;99.90
2389;DHT22;1205;47.984;7.668;2022-12-18T14:04:29;-0.80;99.90
2389;DHT22;1205;47.984;7.668;2022-12-18T14:07:01;-0.70;99.90
2389;DHT22;1205;47.984;7.668;2022-12-18T14:09:30;-0.60;99.90
2389;DHT22;1205;47.984;7.668;2022-12-18T14:11:57;-0.50;99.90
2389;DHT22;1205;47.984;7.668;2022-12-18T14:14:45;-0.50;99.90
2389;DHT22;1205;47.984;7.668;2022-12-18T14:17:13;-0.50;99.90
2389;DHT22;1205;47.984;7.668;2022-12-18T14:19:47;-0.50;99.90
2389;DHT22;1205;47.984;7.668;2022-12-18T14:22:26;-0.50;99.90
2389;DHT22;1205;47.984;7.668;2022-12-18T14:25:15;-0.50;99.90
2389;DHT22;1205;47.984;7.668;2022-12-18T14:27:47;-0.50;99.90
2389;DHT22;1205;47.984;7.668;2022-12-18T14:33:01;-0.60;99.90
2389;DHT22;1205;47.984;7.668;2022-12-18T14:35:27;-0.60;99.90
2389;DHT22;1205;47.984;7.668;2022-12-18T14:37:53;-0.60;99.90
2389;DHT22;1205;47.984;7.668;2022-12-18T14:40:19;-0.80;99.90
2389;DHT22;1205;47.984;7.668;2022-12-18T14:42:44;-0.70;99.90
2389;DHT22;1205;47.984;7.668;2022-12-18T14:45:32;-0.80;99.90
2389;DHT22;1205;47.984;7.668;2022-12-18T14:47:59;-0.80;99.90
2389;DHT22;1205;47.984;7.668;2022-12-18T14:50:25;-0.80;99.90
2389;DHT22;1205;47.984;7.668;2022-12-18T14:52:51;-0.70;99.90
2389;DHT22;1205;47.984;7.668;2022-12-18T14:55:18;-0.70;99.90
2389;DHT22;1205;47.984;7.668;2022-12-18T14:57:44;-0.80;99.90
2389;DHT22;1205;47.984;7.668;2022-12-18T15:00:19;-0.90;99.90
2389;DHT22;1205;47.984;7.668;2022-12-18T15:02:48;-0.90;99.90
2389;DHT22;1205;47.984;7.668;2022-12-18T15:05:30;-0.80;99.90
2389;DHT22;1205;47.984;7.668;2022-12-18T15:07:57;-0.80;99.90
2389;DHT22;1205;47.984;7.668;2022-12-18T15:10:29;-0.80;99.90
2389;DHT22;1205;47.984;7.668;2022-12-18T15:23:18;-0.80;99.90
2389;DHT22;1205;47.984;7.668;2022-12-18T15:25:45;-0.80;99.90
2389;DHT22;1205;47.984;7.668;2022-12-18T15:28:21;-0.90;99.90
2389;DHT22;1205;47.984;7.668;2022-12-18T15:30:59;-0.90;99.90
2389;DHT22;1205;47.984;7.668;2022-12-18T15:33:29;-0.80;99.90
2389;DHT22;1205;47.984;7.668;2022-12-18T15:36:00;-0.80;99.90
2389;DHT22;1205;47.984;7.668;2022-12-18T15:38:26;-0.80;99.90
2389;DHT22;1205;47.984;7.668;2022-12-18T15:40:53;-0.80;99.90
2389;DHT22;1205;47.984;7.668;2022-12-18T15:43:23;-0.80;99.90
2389;DHT22;1205;47.984;7.668;2022-12-18T15:46:03;-0.80;99.90
2389;DHT22;1205;47.984;7.668;2022-12-18T15:48:29;-0.80;99.90
2389;DHT22;1205;47.984;7.668;2022-12-18T15:50:56;-0.80;99.90
2389;DHT22;1205;47.984;7.668;2022-12-18T15:53:32;-0.90;99.90
2389;DHT22;1205;47.984;7.668;2022-12-18T15:55:59;-0.80;99.90
2389;DHT22;1205;47.984;7.668;2022-12-18T15:58:43;-0.70;99.90
2389;DHT22;1205;47.984;7.668;2022-12-18T16:01:09;-0.80;99.90
2389;DHT22;1205;47.984;7.668;2022-12-18T16:03:36;-0.80;99.90
2389;DHT22;1205;47.984;7.668;2022-12-18T16:06:01;-0.90;99.90
2389;DHT22;1205;47.984;7.668;2022-12-18T16:08:31;-0.90;99.90
2389;DHT22;1205;47.984;7.668;2022-12-18T16:10:57;-1.00;99.90
2389;DHT22;1205;47.984;7.668;2022-12-18T16:13:23;-1.00;99.90
2389;DHT22;1205;47.984;7.668;2022-12-18T16:15:49;-0.90;99.90
2389;DHT22;1205;47.984;7.668;2022-12-18T16:18:14;-0.90;99.90
2389;DHT22;1205;47.984;7.668;2022-12-18T16:20:40;-1.00;99.90
2389;DHT22;1205;47.984;7.668;2022-12-18T16:23:06;-1.00;99.90
2389;DHT22;1205;47.984;7.668;2022-12-18T16:25:31;-1.00;99.90
2389;DHT22;1205;47.984;7.668;2022-12-18T16:27:57;-1.10;99.90
2389;DHT22;1205;47.984;7.668;2022-12-18T16:30:26;-0.80;99.90
2389;DHT22;1205;47.984;7.668;2022-12-18T16:32:54;-1.00;99.90
2389;DHT22;1205;47.984;7.668;2022-12-18T16:35:20;-1.00;99.90
2389;DHT22;1205;47.984;7.668;2022-12-18T16:37:46;-1.00;99.90
2389;DHT22;1205;47.984;7.668;2022-12-18T16:40:14;-1.10;99.90
2389;DHT22;1205;47.984;7.668;2022-12-18T16:42:41;-1.10;99.90
2389;DHT22;1205;47.984;7.668;2022-12-18T16:45:09;-1.20;99.90
2389;DHT22;1205;47.984;7.668;2022-12-18T16:47:35;-1.20;99.90
2389;DHT22;1205;47.984;7.668;2022-12-18T16:50:00;-1.10;99.90
2389;DHT22;1205;47.984;7.668;2022-12-18T16:52:27;-1.20;99.90
2389;DHT22;1205;47.984;7.668;2022-12-18T16:54:52;-1.10;99.90
2389;DHT22;1205;47.984;7.668;2022-12-18T16:57:19;-1.10;99.90
2389;DHT22;1205;47.984;7.668;2022-12-18T16:59:45;-1.10;99.90
2389;DHT22;1205;47.984;7.668;2022-12-18T17:02:16;-1.10;99.90
2389;DHT22;1205;47.984;7.668;2022-12-18T17:04:43;-1.10;99.90
2389;DHT22;1205;47.984;7.668;2022-12-18T17:07:09;-1.20;99.90
2389;DHT22;1205;47.984;7.668;2022-12-18T17:09:35;-1.20;99.90
2389;DHT22;1205;47.984;7.668;2022-12-18T17:12:01;-1.10;99.90
2389;DHT22;1205;47.984;7.668;2022-12-18T17:14:26;-1.10;99.90
2389;DHT22;1205;47.984;7.668;2022-12-18T17:16:52;-1.00;99.90
2389;DHT22;1205;47.984;7.668;2022-12-18T17:19:18;-1.10;99.90
2389;DHT22;1205;47.984;7.668;2022-12-18T17:21:47;-1.10;99.90
2389;DHT22;1205;47.984;7.668;2022-12-18T17:24:12;-1.00;99.90
2389;DHT22;1205;47.984;7.668;2022-12-18T17:26:38;-1.00;99.90
2389;DHT22;1205;47.984;7.668;2022-12-18T17:29:04;-1.00;99.90
2389;DHT22;1205;47.984;7.668;2022-12-18T17:31:30;-1.00;99.90
2389;DHT22;1205;47.984;7.668;2022-12-18T17:33:57;-0.90;99.90
2389;DHT22;1205;47.984;7.668;2022-12-18T17:36:22;-0.80;99.90
2389;DHT22;1205;47.984;7.668;2022-12-18T17:38:53;-0.90;99.90
2389;DHT22;1205;47.984;7.668;2022-12-18T17:41:19;-0.80;99.90
2389;DHT22;1205;47.984;7.668;2022-12-18T17:43:53;-0.80;99.90
2389;DHT22;1205;47.984;7.668;2022-12-18T17:46:19;-0.80;99.90
2389;DHT22;1205;47.984;7.668;2022-12-18T17:48:45;-0.70;99.90
2389;DHT22;1205;47.984;7.668;2022-12-18T17:51:11;-0.80;99.90
2389;DHT22;1205;47.984;7.668;2022-12-18T17:53:37;-0.80;99.90
2389;DHT22;1205;47.984;7.668;2022-12-18T17:56:04;-0.90;99.90
2389;DHT22;1205;47.984;7.668;2022-12-18T17:58:32;-1.00;99.90